createdAt,value
2019-02-08T07:58:20.357Z,9.9
2019-02-08T07:58:28.547Z,10.3
2019-02-08T07:58:36.715Z,10.4
2019-02-08T07:58:44.932Z,10.6
2019-02-08T07:58:53.131Z,8.7
2019-02-08T07:59:01.564Z,8
2019-02-08T07:59:09.753Z,8.1
2019-02-08T07:59:18.958Z,7.7
2019-02-08T07:59:27.218Z,8.6
2019-02-08T07:59:35.499Z,9.3
2019-02-08T07:59:43.682Z,9.7
2019-02-08T07:59:51.912Z,10.8
2019-02-08T08:00:00.185Z,12
2019-02-08T08:00:08.312Z,12
2019-02-08T08:00:16.485Z,13.2
2019-02-08T08:00:24.680Z,11.9
2019-02-08T08:00:32.889Z,11.7
2019-02-08T08:00:42.123Z,11.4
2019-02-08T08:00:50.422Z,11.5
2019-02-08T08:00:58.610Z,11.8
2019-02-08T08:01:06.764Z,14.1
2019-02-08T08:01:15.022Z,13.6
2019-02-08T08:01:23.190Z,14.7
2019-02-08T08:01:31.363Z,14.2
2019-02-08T08:01:39.564Z,14
2019-02-08T08:01:47.779Z,12.2
2019-02-08T08:01:55.966Z,11.8
2019-02-08T08:02:04.159Z,9.5
2019-02-08T08:02:12.386Z,11.3
2019-02-08T08:02:21.603Z,10.4
2019-02-08T08:02:29.832Z,10.3
2019-02-08T08:02:37.996Z,10.8
2019-02-08T08:02:46.234Z,7.6
2019-02-08T08:02:54.439Z,9.2
2019-02-08T08:03:02.638Z,11.1
2019-02-08T08:03:10.858Z,14
2019-02-08T08:03:19.053Z,13.6
2019-02-08T08:03:27.295Z,13.7
2019-02-08T08:03:36.147Z,13.6
2019-02-08T08:03:44.593Z,12.3
2019-02-08T08:04:00.929Z,11.2
2019-02-08T08:04:05.945Z,10.4
2019-02-08T08:04:15.071Z,11
2019-02-08T08:04:24.099Z,12.5
2019-02-08T08:04:33.246Z,12
2019-02-08T08:04:42.274Z,10.3
2019-02-08T08:04:51.481Z,8.9
2019-02-08T08:05:00.633Z,7.5
2019-02-08T08:05:09.071Z,8
2019-02-08T08:05:17.802Z,7.9
2019-02-08T08:05:26.902Z,8.7
2019-02-08T08:05:35.825Z,8.8
2019-02-08T08:05:45.036Z,10.1
2019-02-08T08:05:53.881Z,8.6
2019-02-08T08:06:02.800Z,9.5
2019-02-08T08:06:12.223Z,7.1
2019-02-08T08:06:21.598Z,8.7
2019-02-08T08:06:30.966Z,8.4
2019-02-08T08:06:39.943Z,8.6
2019-02-08T08:06:49.315Z,8.1
2019-02-08T08:06:58.360Z,7.5
2019-02-08T08:07:07.219Z,10.2
2019-02-08T08:07:16.555Z,9.8
2019-02-08T08:07:25.813Z,9.6
2019-02-08T08:07:35.137Z,9
2019-02-08T08:07:45.543Z,10.6
2019-02-08T08:07:55.634Z,10.9
2019-02-08T08:08:05.461Z,10.6
2019-02-08T08:08:14.544Z,11.3
2019-02-08T08:08:23.402Z,11.2
2019-02-08T08:08:32.414Z,13.6
2019-02-08T08:08:41.427Z,10.4
2019-02-08T08:08:51.001Z,9.9
2019-02-08T08:08:59.949Z,8.6
2019-02-08T08:09:09.054Z,7.5
2019-02-08T08:09:18.172Z,9.8
2019-02-08T08:09:27.299Z,9.9
2019-02-08T08:09:36.410Z,10.4
2019-02-08T08:09:46.427Z,10.1
2019-02-08T08:09:55.568Z,8.7
2019-02-08T08:10:04.561Z,9.6
2019-02-08T08:10:13.725Z,7.8
2019-02-08T08:10:23.050Z,7.6
2019-02-08T08:10:33.405Z,6.7
2019-02-08T08:10:43.790Z,6.6
2019-02-08T08:10:53.102Z,6.8
2019-02-08T08:11:02.122Z,6.2
2019-02-08T08:11:12.444Z,7.1
2019-02-08T08:11:21.315Z,7.9
2019-02-08T08:11:30.615Z,7.1
2019-02-08T08:11:39.933Z,8.2
2019-02-08T08:11:49.269Z,8.1
2019-02-08T08:11:58.629Z,9
2019-02-08T08:12:07.604Z,7.7
2019-02-08T08:12:16.771Z,8
2019-02-08T08:12:25.591Z,9.1
2019-02-08T08:12:34.771Z,8.7
2019-02-08T08:12:44.096Z,8.4
2019-02-08T08:12:53.422Z,9.5
2019-02-08T08:13:02.436Z,10.1
2019-02-08T08:13:11.708Z,8.5
2019-02-08T08:13:21.053Z,6.8
2019-02-08T08:13:30.291Z,6.5
2019-02-08T08:13:39.513Z,7.7
2019-02-08T08:13:48.476Z,8.5
2019-02-08T08:13:57.627Z,8.1
2019-02-08T08:14:06.630Z,6.8
2019-02-08T08:14:16.019Z,6.9
2019-02-08T08:14:25.031Z,7
2019-02-08T08:14:33.218Z,7.3
2019-02-08T08:14:41.455Z,8.1
2019-02-08T08:14:49.649Z,6.8
2019-02-08T08:14:58.528Z,7.8
2019-02-08T08:15:07.424Z,7.9
2019-02-08T08:15:16.627Z,8.7
2019-02-08T08:15:25.678Z,7.9
2019-02-08T08:15:35.048Z,8
2019-02-08T08:15:44.510Z,7.8
2019-02-08T08:15:53.663Z,7.1
2019-02-08T08:16:02.707Z,7.1
2019-02-08T08:16:12.071Z,7.3
2019-02-08T08:16:21.465Z,7
2019-02-08T08:16:30.765Z,6.4
2019-02-08T08:16:39.794Z,6.7
2019-02-08T08:16:49.153Z,6.9
2019-02-08T08:16:58.358Z,6.3
2019-02-08T08:17:07.444Z,6.8
2019-02-08T08:17:16.793Z,7.4
2019-02-08T08:17:26.055Z,7.7
2019-02-08T08:17:35.345Z,7.5
2019-02-08T08:17:44.177Z,7.3
2019-02-08T08:17:53.388Z,6.6
2019-02-08T08:18:02.235Z,7.3
2019-02-08T08:18:12.261Z,6.8
2019-02-08T08:18:21.613Z,5.1
2019-02-08T08:18:30.969Z,4.9
2019-02-08T08:18:41.084Z,5.4
2019-02-08T08:18:50.226Z,7
2019-02-08T08:18:59.520Z,7.7
2019-02-08T08:19:08.580Z,6.9
2019-02-08T08:19:17.685Z,7.7
2019-02-08T08:19:28.011Z,7.5
2019-02-08T08:19:37.395Z,9
2019-02-08T08:19:46.771Z,8.6
2019-02-08T08:19:56.122Z,7.9
2019-02-08T08:20:05.194Z,9
2019-02-08T08:20:14.220Z,7.7
2019-02-08T08:20:23.453Z,7.3
2019-02-08T08:20:32.812Z,6.3
2019-02-08T08:20:42.163Z,6.5
2019-02-08T08:20:51.670Z,8.1
2019-02-08T08:21:00.928Z,8.1
2019-02-08T08:21:10.114Z,7.1
2019-02-08T08:21:19.454Z,6.3
2019-02-08T08:21:28.806Z,8.1
2019-02-08T08:21:38.162Z,9.4
2019-02-08T08:21:48.503Z,9
2019-02-08T08:21:57.824Z,7.5
2019-02-08T08:22:06.876Z,8.6
2019-02-08T08:22:16.015Z,8.3
2019-02-08T08:22:25.324Z,9.6
2019-02-08T08:22:34.658Z,9.6
2019-02-08T08:22:44.008Z,10.1
2019-02-08T08:22:53.351Z,9.8
2019-02-08T08:23:02.410Z,10.2
2019-02-08T08:23:12.293Z,10.5
2019-02-08T08:23:21.596Z,10.2
2019-02-08T08:23:30.934Z,8
2019-02-08T08:23:40.297Z,6.9
2019-02-08T08:23:49.324Z,7.7
2019-02-08T08:23:58.565Z,10.1
2019-02-08T08:24:07.439Z,10.9
2019-02-08T08:24:16.779Z,9.8
2019-02-08T08:24:25.519Z,7.4
2019-02-08T08:24:35.639Z,8.1
2019-02-08T08:24:45.025Z,9.6
2019-02-08T08:24:54.387Z,9.9
2019-02-08T08:25:03.274Z,9.7
2019-02-08T08:25:13.496Z,8.8
2019-02-08T08:25:23.798Z,8.6
2019-02-08T08:25:36.454Z,7.8
2019-02-08T08:25:45.930Z,8.5
2019-02-08T08:25:55.075Z,8.2
2019-02-08T08:26:04.173Z,7.7
2019-02-08T08:26:13.399Z,6.3
2019-02-08T08:26:22.474Z,6.1
2019-02-08T08:26:30.749Z,6.6
2019-02-08T08:26:39.670Z,7.9
2019-02-08T08:26:48.890Z,8.2
2019-02-08T08:26:58.212Z,8.9
2019-02-08T08:27:06.409Z,8.6
2019-02-08T08:27:14.641Z,9.1
2019-02-08T08:27:23.841Z,7.7
2019-02-08T08:27:32.345Z,9.6
2019-02-08T08:27:40.923Z,10.8
2019-02-08T08:27:49.447Z,11.7
2019-02-08T08:27:58.043Z,10.2
2019-02-08T08:28:06.481Z,9
2019-02-08T08:28:15.245Z,4.9
2019-02-08T08:28:23.820Z,4.7
2019-02-08T08:28:32.350Z,4.2
2019-02-08T08:28:40.897Z,4.8
2019-02-08T08:28:49.459Z,5.3
2019-02-08T08:28:58.182Z,6
2019-02-08T08:29:07.692Z,6.1
2019-02-08T08:29:16.443Z,5.7
2019-02-08T08:29:25.909Z,6.2
2019-02-08T08:29:34.743Z,5.6
2019-02-08T08:29:43.422Z,5.8
2019-02-08T08:29:52.332Z,6.7
2019-02-08T08:30:00.670Z,5.7
2019-02-08T08:30:09.975Z,6.3
2019-02-08T08:30:18.959Z,5.4
2019-02-08T08:30:28.020Z,5.6
2019-02-08T08:30:37.343Z,5.7
2019-02-08T08:30:46.585Z,5.1
2019-02-08T08:30:55.592Z,5.4
2019-02-08T08:31:04.496Z,5
2019-02-08T08:31:13.347Z,6.4
2019-02-08T08:31:22.708Z,6.2
2019-02-08T08:31:31.883Z,7.4
2019-02-08T08:31:41.258Z,7.4
2019-02-08T08:31:50.663Z,7.2
2019-02-08T08:32:00.851Z,7.1
2019-02-08T08:32:09.982Z,6.5
2019-02-08T08:32:19.346Z,6.3
2019-02-08T08:32:28.504Z,5.4
2019-02-08T08:32:37.919Z,5.8
2019-02-08T08:32:46.981Z,6.3
2019-02-08T08:32:56.326Z,6.4
2019-02-08T08:33:06.407Z,5.9
2019-02-08T08:33:16.744Z,6.6
2019-02-08T08:33:26.104Z,6.9
2019-02-08T08:33:35.297Z,7.4
2019-02-08T08:33:44.340Z,6.4
2019-02-08T08:33:53.202Z,5.7
2019-02-08T08:34:02.077Z,5.7
2019-02-08T08:34:12.306Z,5.2
2019-02-08T08:34:21.498Z,6
2019-02-08T08:34:30.096Z,6.1
2019-02-08T08:34:39.503Z,6.1
2019-02-08T08:34:48.849Z,6.1
2019-02-08T08:34:59.212Z,4.9
2019-02-08T08:35:08.237Z,4.5
2019-02-08T08:35:17.616Z,4.2
2019-02-08T08:35:26.255Z,4.5
2019-02-08T08:35:35.348Z,5.4
2019-02-08T08:35:44.703Z,5.7
2019-02-08T08:35:54.193Z,5.2
2019-02-08T08:36:03.214Z,4.9
2019-02-08T08:36:12.569Z,4.8
2019-02-08T08:36:21.931Z,6.2
2019-02-08T08:36:31.655Z,7.5
2019-02-08T08:36:40.863Z,8.1
2019-02-08T08:36:50.130Z,8.4
2019-02-08T08:36:59.529Z,7.9
2019-02-08T08:37:08.378Z,8.2
2019-02-08T08:37:17.556Z,7.6
2019-02-08T08:37:27.736Z,7
2019-02-08T08:37:37.048Z,6.8
2019-02-08T08:37:46.423Z,6.6
2019-02-08T08:37:55.658Z,6.4
2019-02-08T08:38:04.558Z,5.8
2019-02-08T08:38:13.954Z,5.3
2019-02-08T08:38:23.313Z,5.5
2019-02-08T08:38:32.684Z,5.3
2019-02-08T08:38:41.874Z,5.4
2019-02-08T08:38:50.899Z,5.2
2019-02-08T08:38:59.947Z,5.4
2019-02-08T08:39:08.969Z,5.2
2019-02-08T08:39:18.017Z,5.5
2019-02-08T08:39:26.492Z,5.5
2019-02-08T08:39:35.324Z,6.7
2019-02-08T08:39:45.019Z,6.2
2019-02-08T08:39:53.478Z,6.6
2019-02-08T08:40:01.681Z,5.7
2019-02-08T08:40:09.902Z,5.3
2019-02-08T08:40:18.122Z,5.9
2019-02-08T08:40:26.693Z,6.8
2019-02-08T08:40:35.511Z,6.4
2019-02-08T08:40:44.513Z,6.7
2019-02-08T08:40:52.784Z,6.3
2019-02-08T08:41:01.624Z,7.3
2019-02-08T08:41:10.473Z,8.1
2019-02-08T08:41:18.860Z,8.2
2019-02-08T08:41:27.194Z,7.5
2019-02-08T08:41:36.950Z,6.7
2019-02-08T08:41:45.777Z,6.6
2019-02-08T08:41:54.014Z,6.3
2019-02-08T08:42:02.534Z,5.6
2019-02-08T08:42:10.723Z,6.5
2019-02-08T08:42:19.089Z,5.4
2019-02-08T08:42:27.287Z,6.6
2019-02-08T08:42:35.483Z,6.9
2019-02-08T08:42:43.666Z,6.1
2019-02-08T08:42:52.810Z,6.2
2019-02-08T08:43:01.443Z,5.5
2019-02-08T08:43:10.469Z,6
2019-02-08T08:43:20.302Z,6.6
2019-02-08T08:43:28.504Z,6
2019-02-08T08:43:36.735Z,5.8
2019-02-08T08:43:44.945Z,5.8
2019-02-08T08:43:54.761Z,4.9
2019-02-08T08:44:03.742Z,5.5
2019-02-08T08:44:12.919Z,5.3
2019-02-08T08:44:21.795Z,6.5
2019-02-08T08:44:30.527Z,5.9
2019-02-08T08:44:39.866Z,5.7
2019-02-08T08:44:49.033Z,5.6
2019-02-08T08:44:58.193Z,6
2019-02-08T08:45:07.059Z,6.2
2019-02-08T08:45:15.989Z,6.3
2019-02-08T08:45:25.222Z,6.2
2019-02-08T08:45:34.161Z,5.8
2019-02-08T08:45:43.565Z,5.3
2019-02-08T08:45:52.802Z,5.7
2019-02-08T08:46:02.874Z,4.9
2019-02-08T08:46:12.171Z,5.6
2019-02-08T08:46:21.381Z,5.1
2019-02-08T08:46:30.178Z,6.8
2019-02-08T08:46:39.621Z,6.9
2019-02-08T08:46:49.769Z,7.5
2019-02-08T08:46:58.969Z,5.5
2019-02-08T08:47:07.977Z,5.1
2019-02-08T08:47:17.325Z,5.1
2019-02-08T08:47:26.337Z,5.5
2019-02-08T08:47:35.511Z,6.1
2019-02-08T08:47:44.562Z,7.1
2019-02-08T08:47:53.488Z,7.3
2019-02-08T08:48:02.395Z,7.4
2019-02-08T08:48:11.736Z,6.1
2019-02-08T08:48:21.039Z,5.6
2019-02-08T08:48:29.365Z,5.7
2019-02-08T08:48:38.586Z,6
2019-02-08T08:48:47.296Z,5.8
2019-02-08T08:48:56.259Z,5.3
2019-02-08T08:49:05.252Z,5.4
2019-02-08T08:49:14.456Z,5.4
2019-02-08T08:49:23.658Z,6
2019-02-08T08:49:32.650Z,6.7
2019-02-08T08:49:41.526Z,8
2019-02-08T08:49:50.525Z,7.9
2019-02-08T08:49:59.463Z,6.9
2019-02-08T08:50:08.472Z,6.8
2019-02-08T08:50:17.710Z,5.1
2019-02-08T08:50:27.051Z,5.4
2019-02-08T08:50:36.404Z,6.2
2019-02-08T08:50:47.865Z,5.6
2019-02-08T08:50:56.915Z,6
2019-02-08T08:51:05.783Z,4.9
2019-02-08T08:51:15.169Z,5.6
2019-02-08T08:51:24.276Z,5.4
2019-02-08T08:51:33.627Z,5.5
2019-02-08T08:51:42.930Z,5.9
2019-02-08T08:51:52.278Z,5.8
2019-02-08T08:52:01.142Z,6.8
2019-02-08T08:52:10.315Z,7
2019-02-08T08:52:19.547Z,7
2019-02-08T08:52:28.905Z,6
2019-02-08T08:52:37.951Z,9.5
2019-02-08T08:52:46.993Z,9.6
2019-02-08T08:52:56.381Z,9.3
2019-02-08T08:53:05.402Z,10.1
2019-02-08T08:53:14.712Z,6.1
2019-02-08T08:53:23.887Z,6.1
2019-02-08T08:53:32.765Z,6.5
2019-02-08T08:53:41.851Z,6.2
2019-02-08T08:53:51.578Z,7.1
2019-02-08T08:54:01.444Z,7.2
2019-02-08T08:54:09.934Z,7.4
2019-02-08T08:54:18.313Z,7
2019-02-08T08:54:27.163Z,6.4
2019-02-08T08:54:36.408Z,7.3
2019-02-08T08:54:45.777Z,7.8
2019-02-08T08:54:54.947Z,8.4
2019-02-08T08:55:03.340Z,9.9
2019-02-08T08:55:11.652Z,7.6
2019-02-08T08:55:20.117Z,7.4
2019-02-08T08:55:29.538Z,6.9
2019-02-08T08:55:42.559Z,6.2
2019-02-08T08:55:51.330Z,5.6
2019-02-08T08:56:00.390Z,5.5
2019-02-08T08:56:09.589Z,5.2
2019-02-08T08:56:18.775Z,4.8
2019-02-08T08:56:27.590Z,5.3
2019-02-08T08:56:36.965Z,5.3
2019-02-08T08:56:46.579Z,5.7
2019-02-08T08:56:55.985Z,5.8
2019-02-08T08:57:04.874Z,5.9
2019-02-08T08:57:14.034Z,5.8
2019-02-08T08:57:25.132Z,6
2019-02-08T08:57:35.518Z,7.1
2019-02-08T08:57:44.536Z,6.9
2019-02-08T08:57:53.927Z,7
2019-02-08T08:58:02.970Z,5.9
2019-02-08T08:58:12.087Z,5.9
2019-02-08T08:58:21.488Z,5.6
2019-02-08T08:58:31.379Z,6.7
2019-02-08T08:58:40.563Z,6.7
2019-02-08T08:58:49.609Z,7.3
2019-02-08T08:58:58.984Z,6.7
2019-02-08T08:59:09.665Z,5.6
2019-02-08T08:59:20.588Z,4.8
2019-02-08T08:59:30.432Z,4.7
2019-02-08T08:59:39.605Z,5.5
2019-02-08T08:59:48.940Z,5.6
2019-02-08T08:59:59.960Z,5.9
2019-02-08T09:00:10.475Z,5.7
2019-02-08T09:00:19.230Z,5.3
2019-02-08T09:00:28.107Z,4.3
2019-02-08T09:00:37.013Z,5.6
2019-02-08T09:00:46.365Z,5.7
2019-02-08T09:00:55.591Z,7
2019-02-08T09:01:04.419Z,5.8
2019-02-08T09:01:13.285Z,6.4
2019-02-08T09:01:23.503Z,6.7
2019-02-08T09:01:32.874Z,6.8
2019-02-08T09:01:41.887Z,6.1
2019-02-08T09:01:51.081Z,5.8
2019-02-08T09:01:59.940Z,6
2019-02-08T09:02:08.956Z,6
2019-02-08T09:02:18.167Z,6
2019-02-08T09:02:27.507Z,6.5
2019-02-08T09:02:36.823Z,6.7
2019-02-08T09:02:46.173Z,6.2
2019-02-08T09:02:55.234Z,5.1
2019-02-08T09:03:04.253Z,4.4
2019-02-08T09:03:12.789Z,4.8
2019-02-08T09:03:22.099Z,6
2019-02-08T17:25:07.356Z,8.2
2019-02-08T17:25:15.528Z,7.4
2019-02-08T18:21:58.313Z,39.099998
2019-02-08T18:22:07.484Z,42.099998
2019-02-08T18:22:16.641Z,44.700001
2019-02-08T18:22:24.830Z,45.400002
2019-02-08T18:22:34.025Z,46.599998
2019-02-08T18:22:42.143Z,47.299999
2019-02-08T18:22:50.417Z,45.400002
2019-02-08T18:22:58.566Z,43
2019-02-08T18:23:07.249Z,43.599998
2019-02-08T18:23:15.884Z,44
2019-02-08T18:23:25.070Z,47.099998
2019-02-08T18:23:34.416Z,48.099998
2019-02-08T18:23:43.484Z,48.299999
2019-02-08T18:23:52.728Z,46.799999
2019-02-08T18:24:02.197Z,41.400002
2019-02-08T18:24:11.544Z,33.700001
2019-02-08T18:24:21.819Z,26
2019-02-08T18:24:30.265Z,25.9
2019-02-08T18:24:39.294Z,25.1
2019-02-08T18:24:48.461Z,24.799999
2019-02-08T18:24:57.195Z,25.9
2019-02-08T18:25:06.060Z,24.9
2019-02-08T18:25:15.198Z,23.299999
2019-02-08T18:25:24.172Z,21.799999
2019-02-08T18:25:33.039Z,19.299999
2019-02-08T18:25:41.640Z,20.299999
2019-02-08T18:25:50.656Z,20.1
2019-02-08T18:26:00.783Z,19.5
2019-02-08T18:26:10.043Z,17.6
2019-02-08T18:26:19.212Z,18.9
2019-02-08T18:26:28.489Z,18.1
2019-02-08T18:26:37.836Z,16.299999
2019-02-08T18:26:47.186Z,14.5
2019-02-08T18:26:56.238Z,16.700001
2019-02-08T18:27:06.271Z,20
2019-02-08T18:27:15.617Z,22.9
2019-02-08T18:27:25.010Z,23.9
2019-02-08T18:27:34.382Z,21.4
2019-02-08T18:27:43.720Z,21.4
2019-02-08T18:27:53.092Z,20.6
2019-02-08T18:28:02.153Z,19.9
2019-02-08T18:28:16.481Z,18.5
2019-02-08T18:28:24.004Z,15.7
2019-02-08T18:28:32.315Z,15.4
2019-02-08T18:28:41.514Z,14
2019-02-08T18:28:49.692Z,13.1
2019-02-08T18:28:57.851Z,14.7
2019-02-08T18:29:06.038Z,15.8
2019-02-08T18:29:14.190Z,16.299999
2019-02-08T18:29:22.387Z,15.2
2019-02-08T18:29:30.611Z,14.1
2019-02-08T18:29:38.793Z,14.4
2019-02-08T18:29:46.974Z,14.5
2019-02-08T18:29:55.135Z,14.8
2019-02-08T18:30:03.276Z,16.4
2019-02-08T18:30:11.617Z,16.6
2019-02-08T18:30:21.353Z,17.299999
2019-02-08T18:30:29.981Z,17.700001
2019-02-08T18:30:38.143Z,17.4
2019-02-08T18:30:46.902Z,17
2019-02-08T18:30:55.357Z,16.299999
2019-02-08T18:31:03.885Z,17.799999
2019-02-08T18:31:12.406Z,19.4
2019-02-08T18:31:21.011Z,20.4
2019-02-08T18:31:29.534Z,18.5
2019-02-08T18:31:38.008Z,21.5
2019-02-08T18:31:46.501Z,21.9
2019-02-08T18:31:54.984Z,21.200001
2019-02-08T18:32:03.255Z,19.9
2019-02-08T18:32:11.782Z,19
2019-02-08T18:32:20.455Z,19.6
2019-02-08T18:32:29.910Z,19.9
2019-02-08T18:32:38.830Z,18.700001
2019-02-08T18:32:47.999Z,17.5
2019-02-08T18:32:56.842Z,17.1
2019-02-08T18:33:05.246Z,17.200001
2019-02-08T18:33:14.826Z,17.6
2019-02-08T18:33:23.128Z,17.6
2019-02-08T18:33:31.720Z,17.6
2019-02-08T18:33:40.266Z,17.799999
2019-02-08T18:33:50.831Z,17.9
2019-02-08T18:33:59.522Z,16.200001
2019-02-08T18:34:08.063Z,17.6
2019-02-08T18:34:16.487Z,17.799999
2019-02-08T18:34:25.259Z,17.5
2019-02-08T18:34:33.991Z,16.799999
2019-02-08T18:34:42.806Z,16.1
2019-02-08T18:34:52.790Z,17.299999
2019-02-08T18:35:01.297Z,16.799999
2019-02-08T18:35:10.463Z,18
2019-02-08T18:35:19.410Z,17.700001
2019-02-08T18:35:28.593Z,19.4
2019-02-08T18:35:37.946Z,19.4
2019-02-08T18:35:47.135Z,19.700001
2019-02-08T18:35:56.459Z,20.299999
2019-02-08T18:36:06.379Z,18.799999
2019-02-08T18:36:16.566Z,17.5
2019-02-08T18:36:25.879Z,16.6
2019-02-08T18:36:35.071Z,16.799999
2019-02-08T18:36:43.925Z,15.8
2019-02-08T18:36:53.269Z,16
2019-02-08T18:37:02.097Z,16.299999
2019-02-08T18:37:11.128Z,16.1
2019-02-08T18:37:20.283Z,15.5
2019-02-08T18:37:29.646Z,15.5
2019-02-08T18:37:39.007Z,16.200001
2019-02-08T18:37:48.391Z,17
2019-02-08T18:37:58.730Z,17
2019-02-08T18:38:07.632Z,15.6
2019-02-08T18:38:16.887Z,15.8
2019-02-08T18:38:26.093Z,15.4
2019-02-08T18:38:35.432Z,16.1
2019-02-08T18:38:44.773Z,16.299999
2019-02-08T18:38:53.980Z,16.5
2019-02-08T18:39:04.670Z,15.4
2019-02-08T18:39:14.004Z,15.1
2019-02-08T18:39:23.315Z,15.3
2019-02-08T18:39:32.516Z,15.5
2019-02-08T18:39:41.835Z,17.200001
2019-02-08T18:39:51.119Z,16.9
2019-02-08T18:40:00.305Z,17.1
2019-02-08T18:40:09.127Z,17.799999
2019-02-08T18:40:18.454Z,17
2019-02-08T18:40:27.814Z,16.4
2019-02-08T18:40:36.987Z,18
2019-02-08T18:40:45.715Z,17.799999
2019-02-08T18:40:55.091Z,18.6
2019-02-08T18:41:04.826Z,17.6
2019-02-08T18:41:13.873Z,16.799999
2019-02-08T18:41:23.217Z,15.5
2019-02-08T18:41:32.219Z,14.2
2019-02-08T18:41:41.401Z,14.3
2019-02-08T18:41:50.759Z,15.9
2019-02-08T18:42:00.791Z,17.6
2019-02-08T18:42:10.010Z,20.6
2019-02-08T18:42:19.357Z,20
2019-02-08T18:42:28.505Z,19
2019-02-08T18:42:37.851Z,17
2019-02-08T18:42:46.987Z,17
2019-02-08T18:42:56.328Z,17.200001
2019-02-08T18:43:05.371Z,15.6
2019-02-08T18:43:14.667Z,15.6
2019-02-08T18:43:24.998Z,16.299999
2019-02-08T18:43:34.342Z,14.9
2019-02-08T18:43:43.703Z,16.299999
2019-02-08T18:43:52.875Z,17.700001
2019-02-08T18:44:02.742Z,18.299999
2019-02-08T18:44:12.141Z,17.1
2019-02-08T18:44:21.560Z,14.2
2019-02-08T18:44:31.774Z,13.6
2019-02-08T18:44:41.912Z,12.8
2019-02-08T18:44:51.902Z,15
2019-02-08T18:45:01.653Z,19.1
2019-02-08T18:45:11.335Z,27.9
2019-02-08T18:45:21.357Z,34.700001
2019-02-08T18:45:31.447Z,36.799999
2019-02-08T18:45:41.651Z,31.299999
2019-02-08T18:45:51.679Z,25.299999
2019-02-08T18:46:01.506Z,24
2019-02-08T18:46:11.246Z,23.299999
2019-02-08T18:46:21.353Z,19.9
2019-02-08T18:46:31.290Z,16.4
2019-02-08T18:46:41.371Z,13.6
2019-02-08T18:46:51.575Z,11.8
2019-02-08T18:47:01.383Z,13.5
2019-02-08T18:47:11.336Z,13.4
2019-02-08T18:47:21.137Z,13.8
2019-02-08T18:47:31.285Z,12.2
2019-02-08T18:47:40.727Z,13.1
2019-02-08T18:47:50.076Z,13.1
2019-02-08T18:47:59.350Z,14.1
2019-02-08T18:48:08.371Z,14.1
2019-02-08T18:48:17.689Z,14.3
2019-02-08T18:48:26.738Z,15.3
2019-02-08T18:48:36.162Z,15.6
2019-02-08T18:48:46.011Z,15.2
2019-02-08T18:48:55.157Z,14.9
2019-02-08T18:49:03.345Z,14.4
2019-02-08T18:49:11.689Z,15.1
2019-02-08T18:49:19.865Z,14.4
2019-02-08T18:49:28.097Z,11.3
2019-02-08T18:49:37.221Z,13.2
2019-02-08T18:49:45.388Z,13.9
2019-02-08T18:49:53.525Z,14.1
2019-02-08T18:50:01.648Z,13.7
2019-02-08T18:50:10.789Z,12.7
2019-02-08T18:50:18.940Z,11.2
2019-02-08T18:50:27.227Z,11.5
2019-02-08T18:50:35.352Z,11.5
2019-02-08T18:50:44.337Z,12.5
2019-02-08T18:50:52.480Z,12.7
2019-02-08T18:51:00.617Z,13.3
2019-02-08T18:51:10.809Z,16.200001
2019-02-08T18:51:18.948Z,15.8
2019-02-08T18:51:27.082Z,16.9
2019-02-08T18:51:35.227Z,15.5
2019-02-08T18:51:43.381Z,14.9
2019-02-08T18:51:51.574Z,14.2
2019-02-08T18:51:59.803Z,14.1
2019-02-08T18:52:07.937Z,14.5
2019-02-08T18:52:16.139Z,15.6
2019-02-08T18:52:25.298Z,14.8
2019-02-08T18:52:33.453Z,13.2
2019-02-08T18:52:41.583Z,13.2
2019-02-08T18:52:50.699Z,13.3
2019-02-08T18:52:58.835Z,14.8
2019-02-08T18:53:07.987Z,14.5
2019-02-08T18:53:17.140Z,13.6
2019-02-08T18:53:25.309Z,13
2019-02-08T18:53:33.448Z,14.2
2019-02-08T18:53:41.593Z,14.8
2019-02-08T18:53:50.707Z,14.1
2019-02-08T18:53:58.844Z,13.5
2019-02-08T18:54:09.388Z,11.3
2019-02-08T18:54:17.943Z,11.3
2019-02-08T18:54:26.649Z,11.2
2019-02-08T18:54:35.993Z,12.4
2019-02-08T18:54:46.161Z,15.9
2019-02-08T18:54:56.601Z,15.5
2019-02-08T18:55:05.525Z,15.9
2019-02-08T18:55:14.511Z,13.2
2019-02-08T18:55:23.372Z,14.5
2019-02-08T18:55:32.690Z,14.3
2019-02-08T18:55:41.720Z,13.6
2019-02-08T18:55:51.083Z,17.9
2019-02-08T18:56:00.284Z,17.799999
2019-02-08T18:56:09.501Z,17.5
2019-02-08T18:56:18.865Z,15.3
2019-02-08T18:56:27.856Z,12.5
2019-02-08T18:56:36.854Z,11.3
2019-02-08T18:56:46.199Z,12
2019-02-08T18:56:55.509Z,13.5
2019-02-08T18:57:05.356Z,14.9
2019-02-08T18:57:14.699Z,13.8
2019-02-08T18:57:25.976Z,12.2
2019-02-08T18:57:35.273Z,11.1
2019-02-08T18:57:44.552Z,12.4
2019-02-08T18:57:53.894Z,13
2019-02-08T18:58:02.756Z,13.5
2019-02-08T18:58:18.666Z,13.4
2019-02-08T18:58:25.432Z,13.9
2019-02-08T18:58:34.663Z,12.7
2019-02-08T18:58:43.990Z,11.7
2019-02-08T18:58:53.295Z,11.7
2019-02-08T18:59:03.652Z,13.3
2019-02-08T18:59:12.970Z,13.1
2019-02-08T18:59:22.938Z,13.6
2019-02-08T18:59:32.202Z,13.4
2019-02-08T18:59:41.528Z,14.2
2019-02-08T18:59:50.689Z,13.9
2019-02-08T19:00:00.700Z,12.8
2019-02-08T19:00:09.495Z,15
2019-02-08T19:00:19.685Z,14.5
2019-02-08T19:00:28.875Z,14.5
2019-02-08T19:00:42.305Z,12.2
2019-02-08T19:00:51.565Z,13.8
2019-02-08T19:01:00.950Z,15.2
2019-02-08T19:01:11.153Z,16.1
2019-02-08T19:01:20.244Z,15.8
2019-02-08T19:01:29.635Z,14.2
2019-02-08T19:01:38.746Z,13.1
2019-02-08T19:01:47.946Z,14
2019-02-08T19:01:56.825Z,14.6
2019-02-08T19:02:05.814Z,15.5
2019-02-08T19:02:15.175Z,13.9
2019-02-08T19:02:24.496Z,12.4
2019-02-08T19:02:33.550Z,11.2
2019-02-08T19:02:41.762Z,10.5
2019-02-08T19:02:50.649Z,11.3
2019-02-08T19:02:59.519Z,11.2
2019-02-08T19:03:09.478Z,12
2019-02-08T19:03:18.593Z,10.7
2019-02-08T19:03:27.418Z,11.2
2019-02-08T19:03:36.545Z,12.1
2019-02-08T19:03:45.844Z,13.1
2019-02-08T19:03:54.876Z,12.7
2019-02-08T19:04:03.749Z,13.6
2019-02-08T19:04:12.920Z,12.4
2019-02-08T19:04:21.789Z,11.9
2019-02-08T19:04:30.572Z,10.9
2019-02-08T19:04:39.831Z,10.4
2019-02-08T19:04:48.633Z,10.7
2019-02-08T19:04:57.934Z,10.7
2019-02-08T19:05:06.850Z,9.9
2019-02-08T19:05:15.596Z,9.5
2019-02-08T19:05:24.865Z,9.8
2019-02-08T19:05:33.751Z,12.1
2019-02-08T19:05:42.457Z,11.7
2019-02-08T19:05:51.602Z,11.4
2019-02-08T19:06:01.176Z,11.5
2019-02-08T19:06:11.476Z,10.8
2019-02-08T19:06:20.824Z,11.1
2019-02-08T19:06:29.888Z,11.1
2019-02-08T19:06:39.142Z,10.3
2019-02-08T19:06:48.505Z,11.6
2019-02-08T19:06:57.934Z,12.5
2019-02-08T19:07:07.014Z,12.2
2019-02-08T19:07:15.861Z,10.8
2019-02-08T19:07:25.251Z,9.1
2019-02-08T19:07:34.605Z,10.5
2019-02-08T19:07:43.827Z,11.2
2019-02-08T19:07:52.038Z,12.3
2019-02-08T19:08:00.295Z,12.7
2019-02-08T19:08:08.535Z,11.9
2019-02-08T19:08:17.847Z,11
2019-02-08T19:08:26.241Z,10.6
2019-02-08T19:08:36.538Z,10.4
2019-02-08T19:08:45.777Z,10.7
2019-02-08T19:08:54.261Z,10.6
2019-02-08T19:09:02.416Z,10.9
2019-02-08T19:09:10.664Z,11
2019-02-08T19:09:19.794Z,10.5
2019-02-08T19:09:27.971Z,10.7
2019-02-08T19:09:37.152Z,10.7
2019-02-08T19:09:45.347Z,11.9
2019-02-08T19:09:53.578Z,11.4
2019-02-08T19:10:01.845Z,12.4
2019-02-08T19:10:10.013Z,12.5
2019-02-08T19:10:18.261Z,12.1
2019-02-08T19:10:26.902Z,14.3
2019-02-08T19:10:36.664Z,19.200001
2019-02-08T19:10:46.572Z,23.9
2019-02-08T19:10:55.257Z,28.1
2019-02-08T19:11:05.320Z,27.9
2019-02-08T19:11:14.548Z,32.400002
2019-02-08T19:11:24.002Z,34.400002
2019-02-08T19:11:33.361Z,35.099998
2019-02-08T19:11:42.731Z,30.9
2019-02-08T19:11:51.769Z,24
